Time;durP1;ratioP1;P1;durP2;ratioP2;P2;SDS_P1;SDS_P2;PMS_P1;PMS_P2;Temp;Humidity;BMP_temperature;BMP_pressure;BME280_temperature;BME280_humidity;BME280_pressure;Samples;Min_cycle;Max_cycle;Signal;HPM_P1;HPM_P2
2022/12/22 03:28:08;;;;;;;12.03;11.23;;;9.80;99.90;;;;;;4927157;29;20209;-79
2022/12/22 03:30:35;;;;;;;12.50;11.80;;;9.70;99.90;;;;;;4921123;29;20211;-78
2022/12/22 03:33:04;;;;;;;12.13;11.53;;;9.60;99.90;;;;;;4920918;29;20195;-79
2022/12/22 03:35:31;;;;;;;12.27;11.67;;;9.60;99.90;;;;;;4926731;29;20246;-77
2022/12/22 03:38:02;;;;;;;12.10;11.50;;;9.50;99.90;;;;;;4922151;29;20259;-78
2022/12/22 03:40:29;;;;;;;11.90;11.30;;;9.50;99.90;;;;;;4922920;29;20200;-79
2022/12/22 03:48:26;;;;;;;12.00;11.40;;;9.40;99.90;;;;;;4924624;29;20207;-79
2022/12/22 03:50:53;;;;;;;11.80;11.10;;;9.40;99.90;;;;;;4928017;29;20257;-78
2022/12/22 03:53:20;;;;;;;11.70;11.10;;;9.40;99.90;;;;;;4925629;29;20200;-79
2022/12/22 03:55:47;;;;;;;11.70;11.10;;;9.40;99.90;;;;;;4926551;29;20210;-78
2022/12/22 03:58:13;;;;;;;12.40;11.50;;;9.50;99.90;;;;;;4926439;29;20236;-82
2022/12/22 04:00:40;;;;;;;12.57;11.87;;;9.50;99.90;;;;;;4926897;29;20667;-81
2022/12/22 04:03:07;;;;;;;11.80;11.20;;;9.60;99.90;;;;;;4924005;29;20259;-83
2022/12/22 04:05:35;;;;;;;11.83;11.23;;;9.60;99.90;;;;;;4921132;29;20691;-82
2022/12/22 04:08:02;;;;;;;12.10;11.40;;;9.70;99.90;;;;;;4919276;29;20235;-82
2022/12/22 04:13:13;;;;;;;12.47;11.77;;;9.80;99.90;;;;;;4923154;29;20736;-81
2022/12/22 04:15:40;;;;;;;12.80;12.00;;;9.80;99.90;;;;;;4925542;29;20196;-81
2022/12/22 04:18:06;;;;;;;12.63;11.93;;;9.80;99.90;;;;;;4924934;29;20252;-81
2022/12/22 04:20:35;;;;;;;13.17;12.47;;;9.80;99.90;;;;;;4934144;29;20203;-80
2022/12/22 04:23:02;;;;;;;13.20;12.50;;;9.90;99.90;;;;;;4931812;29;20735;-84
2022/12/22 04:25:29;;;;;;;13.30;12.50;;;9.90;99.90;;;;;;4924624;29;20228;-85
2022/12/22 04:27:56;;;;;;;13.63;12.60;;;10.00;99.90;;;;;;4916512;29;20219;-85
2022/12/22 04:30:22;;;;;;;13.67;12.87;;;10.10;99.90;;;;;;4928816;29;20707;-81
2022/12/22 04:32:49;;;;;;;12.90;12.10;;;10.20;99.90;;;;;;4925301;29;20212;-78
2022/12/22 04:35:16;;;;;;;12.93;12.00;;;10.30;99.90;;;;;;4922771;29;20212;-80
2022/12/22 04:37:44;;;;;;;13.30;12.30;;;10.30;99.90;;;;;;4921330;29;20630;-80
2022/12/22 04:40:11;;;;;;;13.17;12.37;;;10.40;99.90;;;;;;4925670;29;20200;-80
2022/12/22 04:42:38;;;;;;;13.13;12.33;;;10.40;99.90;;;;;;4924855;29;20649;-80
2022/12/22 04:45:06;;;;;;;13.77;12.80;;;10.50;99.90;;;;;;4925132;29;20200;-80
2022/12/22 04:47:33;;;;;;;13.40;12.63;;;10.60;99.90;;;;;;4923029;29;20253;-79
2022/12/22 04:49:59;;;;;;;14.07;13.17;;;10.60;99.90;;;;;;4924342;29;20224;-80
2022/12/22 04:52:26;;;;;;;13.67;12.77;;;10.60;99.90;;;;;;4928391;29;20227;-80
2022/12/22 04:54:54;;;;;;;14.03;13.03;;;10.60;99.90;;;;;;4927121;29;20238;-81
2022/12/22 04:57:22;;;;;;;13.27;12.47;;;10.60;99.90;;;;;;4937966;29;20294;-79
2022/12/22 04:59:48;;;;;;;13.50;12.47;;;10.60;99.90;;;;;;4928009;29;20197;-78
2022/12/22 05:02:15;;;;;;;13.37;12.57;;;10.60;99.90;;;;;;4918107;29;20249;-79
2022/12/22 05:04:42;;;;;;;14.00;12.90;;;10.50;99.90;;;;;;4925984;29;20793;-80
2022/12/22 05:07:09;;;;;;;13.80;12.90;;;10.40;99.90;;;;;;4929960;29;20241;-80
2022/12/22 05:09:36;;;;;;;13.73;12.77;;;10.40;99.90;;;;;;4926382;29;20237;-79
2022/12/22 05:12:53;;;;;;;14.30;13.20;;;10.40;99.90;;;;;;4929010;29;20253;-80
2022/12/22 05:14:52;;;;;;;14.37;13.33;;;10.30;99.90;;;;;;4931574;29;20679;-79
2022/12/22 05:17:19;;;;;;;14.00;13.00;;;10.30;99.90;;;;;;4928297;29;20267;-79
2022/12/22 05:19:46;;;;;;;14.10;13.10;;;10.30;99.90;;;;;;4920300;29;20521;-80
2022/12/22 05:22:13;;;;;;;13.90;12.90;;;10.30;99.90;;;;;;4921227;29;20250;-80
2022/12/22 05:24:39;;;;;;;13.63;12.67;;;10.30;99.90;;;;;;4929666;29;20233;-80
2022/12/22 05:27:08;;;;;;;14.23;13.00;;;10.20;99.90;;;;;;4930356;29;20219;-80
2022/12/22 05:29:35;;;;;;;14.13;13.03;;;10.20;99.90;;;;;;4926973;29;20199;-83
2022/12/22 05:32:01;;;;;;;14.77;13.57;;;10.20;99.90;;;;;;4925807;29;20220;-81
2022/12/22 05:34:28;;;;;;;14.80;13.70;;;10.20;99.90;;;;;;4918563;29;20224;-81
2022/12/22 05:36:55;;;;;;;14.07;13.17;;;10.20;99.90;;;;;;4912751;29;20684;-81
2022/12/22 05:39:22;;;;;;;15.17;13.77;;;10.20;99.90;;;;;;4901533;29;20228;-81
2022/12/22 05:41:49;;;;;;;14.80;13.73;;;10.10;99.90;;;;;;4907005;29;20228;-81
2022/12/22 05:44:17;;;;;;;15.03;13.70;;;10.20;99.90;;;;;;4927753;29;20204;-81
2022/12/22 05:46:44;;;;;;;14.40;13.20;;;10.20;99.90;;;;;;4919718;29;20239;-81
2022/12/22 05:49:10;;;;;;;14.80;13.57;;;10.30;99.90;;;;;;4915509;29;20284;-81
2022/12/22 05:51:37;;;;;;;13.80;13.00;;;10.30;99.90;;;;;;4918114;29;20262;-81
2022/12/22 05:54:04;;;;;;;13.93;12.90;;;10.30;99.90;;;;;;4912032;29;20253;-81
2022/12/22 05:56:31;;;;;;;15.00;13.90;;;10.30;99.90;;;;;;4914821;29;20213;-81
2022/12/22 05:58:58;;;;;;;14.73;13.73;;;10.30;99.90;;;;;;4913476;29;20216;-81
2022/12/22 06:01:26;;;;;;;15.20;14.10;;;10.40;99.90;;;;;;4926241;29;20228;-81
2022/12/22 06:03:53;;;;;;;15.27;14.10;;;10.40;99.90;;;;;;4928697;29;20219;-81
2022/12/22 06:06:20;;;;;;;14.93;13.90;;;10.40;99.90;;;;;;4916395;29;20215;-81
2022/12/22 06:08:47;;;;;;;14.97;13.97;;;10.40;99.90;;;;;;4933374;29;20231;-81
2022/12/22 06:11:16;;;;;;;15.10;13.90;;;10.40;99.90;;;;;;4920013;29;20640;-81
2022/12/22 06:13:44;;;;;;;15.00;13.77;;;10.30;99.90;;;;;;4917623;29;20250;-81
2022/12/22 06:16:10;;;;;;;14.77;13.67;;;10.20;99.90;;;;;;4919434;29;20232;-81
2022/12/22 06:18:39;;;;;;;14.17;13.27;;;10.20;99.90;;;;;;4922039;29;20685;-81
2022/12/22 06:21:06;;;;;;;14.80;13.60;;;10.20;99.90;;;;;;4918356;29;20762;-81
2022/12/22 06:23:32;;;;;;;15.03;13.77;;;10.20;99.90;;;;;;4914290;29;20200;-81
2022/12/22 06:26:01;;;;;;;14.77;13.57;;;10.20;99.90;;;;;;4913361;29;20216;-81
2022/12/22 06:28:28;;;;;;;14.67;13.53;;;10.20;99.90;;;;;;4918088;29;20211;-81
2022/12/22 06:30:55;;;;;;;14.60;13.40;;;10.10;99.90;;;;;;4917527;29;20227;-81
2022/12/22 06:33:22;;;;;;;14.27;13.20;;;10.00;99.90;;;;;;4917057;29;20229;-81
2022/12/22 06:35:51;;;;;;;15.03;13.73;;;10.00;99.90;;;;;;4916904;29;20203;-81
2022/12/22 06:38:17;;;;;;;15.83;14.10;;;9.90;99.90;;;;;;4924234;29;20334;-81
2022/12/22 06:40:44;;;;;;;14.73;13.37;;;10.00;99.90;;;;;;4921133;29;20234;-81
2022/12/22 06:43:10;;;;;;;14.70;13.40;;;10.00;99.90;;;;;;4936453;28;20227;-80
2022/12/22 06:45:38;;;;;;;14.50;13.50;;;10.00;99.90;;;;;;4928325;29;20222;-79
2022/12/22 06:48:06;;;;;;;14.63;13.53;;;10.00;99.90;;;;;;4921561;29;20735;-79
2022/12/22 06:50:33;;;;;;;15.40;14.07;;;10.00;99.90;;;;;;4912994;29;20241;-82
2022/12/22 06:53:01;;;;;;;14.77;13.57;;;10.00;99.90;;;;;;4925775;29;20207;-82
2022/12/22 06:55:28;;;;;;;15.50;14.30;;;10.10;99.90;;;;;;4923007;29;20207;-81
2022/12/22 06:57:54;;;;;;;15.43;14.13;;;10.10;99.90;;;;;;4919464;29;20691;-80
2022/12/22 07:00:22;;;;;;;14.83;13.73;;;10.10;99.90;;;;;;4910288;29;20203;-83
2022/12/22 07:02:49;;;;;;;15.37;14.17;;;10.20;99.90;;;;;;4913840;29;20216;-84
2022/12/22 07:05:16;;;;;;;14.97;13.80;;;10.20;99.90;;;;;;4907726;29;20204;-83
2022/12/22 07:07:43;;;;;;;14.80;13.50;;;10.20;99.90;;;;;;4913960;29;20212;-82
2022/12/22 07:10:12;;;;;;;15.00;13.50;;;10.20;99.90;;;;;;4907569;29;20232;-83
2022/12/22 07:12:39;;;;;;;15.03;13.93;;;10.20;99.90;;;;;;4909117;29;20219;-82
2022/12/22 07:15:07;;;;;;;15.03;14.00;;;10.20;99.90;;;;;;4917138;29;20204;-80
2022/12/22 07:17:34;;;;;;;15.43;14.03;;;10.10;99.90;;;;;;4931499;29;20235;-81
2022/12/22 07:20:01;;;;;;;14.87;13.73;;;10.10;99.90;;;;;;4918349;29;20676;-83
2022/12/22 07:22:28;;;;;;;14.90;13.70;;;10.00;99.90;;;;;;4911572;29;20282;-84
2022/12/22 07:24:54;;;;;;;14.10;13.00;;;9.90;99.90;;;;;;4918457;29;20199;-84
2022/12/22 07:27:23;;;;;;;14.97;13.90;;;10.00;99.90;;;;;;4908582;29;20211;-84
2022/12/22 07:29:49;;;;;;;14.53;13.33;;;10.10;99.90;;;;;;4911555;29;20211;-83
2022/12/22 07:32:16;;;;;;;13.93;13.00;;;10.10;99.90;;;;;;4912554;29;20231;-84
2022/12/22 07:34:43;;;;;;;14.83;13.63;;;10.10;99.90;;;;;;4928466;29;20587;-82
2022/12/22 07:37:12;;;;;;;14.83;13.63;;;10.10;99.90;;;;;;4927343;29;20254;-80
2022/12/22 07:39:39;;;;;;;14.47;13.37;;;10.20;99.90;;;;;;4915344;29;20215;-80
2022/12/22 07:44:51;;;;;;;14.30;13.30;;;10.20;99.90;;;;;;4920796;29;20226;-83
2022/12/22 07:47:18;;;;;;;14.80;13.60;;;10.20;99.90;;;;;;4923771;29;20215;-84
2022/12/22 07:52:29;;;;;;;14.37;13.27;;;10.20;99.90;;;;;;4899426;29;20216;-84
2022/12/22 07:54:56;;;;;;;14.10;13.10;;;10.20;99.90;;;;;;4918422;29;20258;-84
2022/12/22 07:57:25;;;;;;;13.67;12.70;;;10.20;99.90;;;;;;4920291;29;20572;-83
2022/12/22 07:59:53;;;;;;;13.90;13.00;;;10.10;99.90;;;;;;4916839;29;20654;-81
2022/12/22 08:02:19;;;;;;;13.55;12.65;;;10.10;99.90;;;;;;4917230;29;20450;-79
2022/12/22 08:04:46;;;;;;;14.10;12.90;;;10.10;99.90;;;;;;4905096;29;20657;-79
2022/12/22 08:07:13;;;;;;;15.53;14.20;;;10.10;99.90;;;;;;4913411;29;20264;-78
2022/12/22 08:09:40;;;;;;;14.70;13.30;;;10.20;99.90;;;;;;4927754;29;20621;-78
2022/12/22 08:12:07;;;;;;;13.83;12.73;;;10.20;99.90;;;;;;4926126;29;20255;-78
2022/12/22 08:14:33;;;;;;;14.73;13.40;;;10.20;99.90;;;;;;4932460;29;20228;-78
2022/12/22 08:17:02;;;;;;;15.50;13.83;;;10.20;99.90;;;;;;4924819;29;20200;-78
2022/12/22 08:19:28;;;;;;;15.37;14.03;;;10.20;99.90;;;;;;4921177;29;20658;-78
2022/12/22 08:21:55;;;;;;;14.77;13.67;;;10.10;99.90;;;;;;4920722;29;20219;-78
2022/12/22 08:24:22;;;;;;;14.50;13.50;;;10.00;99.90;;;;;;4923078;29;20259;-78
2022/12/22 08:26:53;;;;;;;15.20;13.87;;;10.00;99.90;;;;;;4920027;29;20272;-78
2022/12/22 08:29:23;;;;;;;14.90;13.80;;;9.90;99.90;;;;;;4917214;29;20211;-77
2022/12/22 08:31:50;;;;;;;15.07;13.87;;;9.90;99.90;;;;;;4920234;29;20238;-79
2022/12/22 08:34:19;;;;;;;14.57;13.47;;;9.90;99.90;;;;;;4925714;29;20215;-78
2022/12/22 08:36:49;;;;;;;14.27;13.20;;;10.00;99.90;;;;;;4929465;29;20220;-78
2022/12/22 08:39:19;;;;;;;14.00;13.00;;;9.90;99.90;;;;;;4921178;29;20208;-78
2022/12/22 08:41:52;;;;;;;14.30;13.20;;;9.90;99.90;;;;;;4928153;29;20218;-78
2022/12/22 08:44:21;;;;;;;13.90;12.90;;;9.90;99.90;;;;;;4922652;29;20713;-78
2022/12/22 08:46:48;;;;;;;14.17;13.17;;;9.90;99.90;;;;;;4925139;29;20578;-79
2022/12/22 08:49:15;;;;;;;13.70;12.90;;;9.90;99.90;;;;;;4921241;29;20203;-78
2022/12/22 08:51:43;;;;;;;13.80;12.90;;;9.90;99.90;;;;;;4917610;29;20223;-78
2022/12/22 08:54:10;;;;;;;14.10;13.30;;;9.90;99.90;;;;;;4920960;29;20657;-79
2022/12/22 08:56:37;;;;;;;14.07;13.00;;;9.90;99.90;;;;;;4914252;29;20298;-79
2022/12/22 08:59:06;;;;;;;14.37;13.37;;;9.90;99.90;;;;;;4914919;29;20256;-78
2022/12/22 09:01:35;;;;;;;13.90;12.97;;;9.90;99.90;;;;;;4910722;29;20244;-78
2022/12/22 09:04:02;;;;;;;13.73;12.83;;;10.00;99.90;;;;;;4906967;29;20236;-79
2022/12/22 09:06:30;;;;;;;13.83;12.93;;;10.10;99.90;;;;;;4907998;29;20260;-79
2022/12/22 09:08:59;;;;;;;14.43;13.57;;;10.10;99.90;;;;;;4926799;29;20222;-79
2022/12/22 09:11:27;;;;;;;14.63;13.67;;;10.20;99.90;;;;;;4926399;29;20281;-78
2022/12/22 09:13:56;;;;;;;13.80;12.80;;;10.30;99.90;;;;;;4925858;29;20219;-79
2022/12/22 09:16:24;;;;;;;13.30;12.50;;;10.40;99.90;;;;;;4926294;29;20260;-78
2022/12/22 09:18:51;;;;;;;14.57;13.67;;;10.50;99.90;;;;;;4925014;29;20207;-78
2022/12/22 09:21:18;;;;;;;14.53;13.53;;;10.60;99.90;;;;;;4923747;29;20276;-79
2022/12/22 09:23:45;;;;;;;14.80;13.80;;;10.60;99.90;;;;;;4919430;29;20636;-79
2022/12/22 09:26:16;;;;;;;15.00;13.80;;;10.60;99.90;;;;;;4924468;29;20215;-78
2022/12/22 09:28:43;;;;;;;15.50;14.40;;;10.50;99.90;;;;;;4914452;29;20212;-78
2022/12/22 09:31:11;;;;;;;14.17;13.20;;;10.40;99.90;;;;;;4914776;29;20279;-79
2022/12/22 09:33:38;;;;;;;13.87;12.80;;;10.30;99.90;;;;;;4923955;29;20203;-79
2022/12/22 09:36:07;;;;;;;14.53;13.53;;;10.30;99.90;;;;;;4923299;29;20231;-79
2022/12/22 09:38:36;;;;;;;14.75;13.85;;;10.10;99.90;;;;;;4930199;29;20798;-80
2022/12/22 09:41:08;;;;;;;14.47;13.57;;;10.10;99.90;;;;;;4912903;29;20220;-80
2022/12/22 09:43:37;;;;;;;15.20;14.20;;;10.00;99.90;;;;;;4910081;29;20254;-81
2022/12/22 09:46:04;;;;;;;15.93;14.60;;;10.00;99.90;;;;;;4917213;29;20287;-79
2022/12/22 09:48:35;;;;;;;15.27;14.17;;;10.00;99.90;;;;;;4911133;29;20680;-79
2022/12/22 09:51:03;;;;;;;15.50;14.30;;;10.00;99.90;;;;;;4910920;29;20224;-78
2022/12/22 09:53:31;;;;;;;15.53;14.47;;;10.00;99.90;;;;;;4917376;29;20687;-77
2022/12/22 09:55:58;;;;;;;15.67;14.57;;;10.10;99.90;;;;;;4915279;29;20267;-79
2022/12/22 09:58:27;;;;;;;15.73;14.60;;;10.10;99.90;;;;;;4917378;29;20271;-79
2022/12/22 10:01:05;;;;;;;14.30;13.40;;;10.10;99.90;;;;;;4916560;29;20235;-79
2022/12/22 10:03:40;;;;;;;14.60;13.70;;;10.00;99.90;;;;;;4921141;29;20207;-78
2022/12/22 10:06:13;;;;;;;14.97;13.63;;;10.00;99.90;;;;;;4925431;29;20580;-79
2022/12/22 10:08:40;;;;;;;14.77;13.60;;;10.00;99.90;;;;;;4922065;29;20641;-80
2022/12/22 10:11:12;;;;;;;14.60;13.43;;;10.10;99.90;;;;;;4917940;29;20760;-79
2022/12/22 10:13:39;;;;;;;14.40;13.30;;;10.10;99.90;;;;;;4924473;29;20220;-79
2022/12/22 10:16:19;;;;;;;14.63;13.43;;;10.20;99.90;;;;;;4921774;29;20215;-79
2022/12/22 10:18:59;;;;;;;14.53;13.10;;;10.20;99.90;;;;;;4913315;29;20204;-79
2022/12/22 10:21:27;;;;;;;14.70;13.60;;;10.30;99.90;;;;;;4910313;29;20224;-79
2022/12/22 10:23:54;;;;;;;14.40;13.27;;;10.30;99.90;;;;;;4920159;29;20228;-79
2022/12/22 10:26:23;;;;;;;14.60;13.40;;;10.30;99.90;;;;;;4922858;29;20212;-80
2022/12/22 10:28:54;;;;;;;15.53;14.00;;;10.40;99.90;;;;;;4929607;29;20235;-81
2022/12/22 10:31:24;;;;;;;14.80;13.47;;;10.40;99.90;;;;;;4923250;29;20267;-80
2022/12/22 10:33:53;;;;;;;14.77;13.47;;;10.50;99.90;;;;;;4923681;29;20208;-84
2022/12/22 10:36:23;;;;;;;15.50;13.87;;;10.50;99.90;;;;;;4918834;29;20592;-80
2022/12/22 10:38:57;;;;;;;15.00;13.80;;;10.60;99.90;;;;;;4926049;29;20199;-80
2022/12/22 10:41:27;;;;;;;14.93;13.60;;;10.60;99.90;;;;;;4918419;29;20220;-80
2022/12/22 10:43:56;;;;;;;14.10;13.10;;;10.60;99.90;;;;;;4920863;29;20205;-79
2022/12/22 10:46:33;;;;;;;14.27;13.20;;;10.60;99.90;;;;;;4926582;29;20950;-80
2022/12/22 10:49:19;;;;;;;14.83;13.73;;;10.60;99.90;;;;;;4917725;29;20208;-80
2022/12/22 10:51:50;;;;;;;15.43;14.10;;;10.60;99.90;;;;;;4919656;29;20284;-77
2022/12/22 10:54:29;;;;;;;14.20;13.00;;;10.60;99.90;;;;;;4914571;29;20248;-81
2022/12/22 10:57:04;;;;;;;14.37;13.27;;;10.60;99.90;;;;;;4913535;29;20232;-80
2022/12/22 10:59:31;;;;;;;14.30;13.30;;;10.50;99.90;;;;;;4913142;29;20207;-83
2022/12/22 11:02:25;;;;;;;14.03;12.97;;;10.50;99.90;;;;;;4912453;29;20255;-82
2022/12/22 11:04:53;;;;;;;14.77;13.57;;;10.50;99.90;;;;;;4913039;29;20683;-81
2022/12/22 11:07:21;;;;;;;14.60;13.40;;;10.50;99.90;;;;;;4931967;29;20200;-81
2022/12/22 11:09:48;;;;;;;14.60;13.10;;;10.50;99.90;;;;;;4923957;29;20201;-81
2022/12/22 11:12:24;;;;;;;14.13;13.00;;;10.50;99.90;;;;;;4932894;29;20227;-82
2022/12/22 11:14:58;;;;;;;14.30;13.10;;;10.60;99.90;;;;;;4924116;29;20674;-82
2022/12/22 11:17:36;;;;;;;14.17;12.97;;;10.70;99.90;;;;;;4929466;29;20195;-82
2022/12/22 11:20:20;;;;;;;14.13;12.80;;;10.70;99.90;;;;;;4928910;29;20237;-81
2022/12/22 11:22:54;;;;;;;14.03;12.97;;;10.80;99.90;;;;;;4927264;29;20233;-82
2022/12/22 11:25:30;;;;;;;13.60;12.50;;;11.00;99.90;;;;;;4926377;29;20215;-81
2022/12/22 11:28:26;;;;;;;13.40;12.30;;;11.00;99.90;;;;;;4931355;29;20208;-84
2022/12/22 11:31:07;;;;;;;13.37;12.20;;;11.10;99.90;;;;;;4926357;29;20280;-81
2022/12/22 11:33:46;;;;;;;12.60;11.70;;;11.10;99.90;;;;;;4927473;29;20623;-81
2022/12/22 11:36:23;;;;;;;13.30;12.20;;;11.10;99.90;;;;;;4902039;29;20238;-79
2022/12/22 11:38:57;;;;;;;12.47;11.50;;;11.20;99.90;;;;;;4908663;29;20741;-77
2022/12/22 11:41:46;;;;;;;12.10;11.13;;;11.20;99.90;;;;;;4928571;29;20239;-80
2022/12/22 11:44:38;;;;;;;13.10;12.07;;;11.20;99.90;;;;;;4927034;29;20763;-78
2022/12/22 11:47:19;;;;;;;12.90;11.90;;;11.30;99.90;;;;;;4926952;29;20209;-79
2022/12/22 11:50:16;;;;;;;12.37;11.60;;;11.30;99.90;;;;;;4919050;29;20233;-80
2022/12/22 11:52:53;;;;;;;13.30;12.10;;;11.20;99.90;;;;;;4925404;29;20233;-79
2022/12/22 11:55:33;;;;;;;13.13;12.03;;;11.30;99.90;;;;;;4928267;29;20621;-79
2022/12/22 11:58:21;;;;;;;12.53;11.63;;;11.40;99.90;;;;;;4928006;29;20249;-79
2022/12/22 12:00:54;;;;;;;12.87;11.83;;;11.40;99.90;;;;;;4912410;29;20301;-79
2022/12/22 12:03:53;;;;;;;12.50;11.60;;;11.40;99.90;;;;;;4926770;29;20215;-79
2022/12/22 12:06:44;;;;;;;13.03;12.10;;;11.50;99.90;;;;;;4922399;29;20683;-80
2022/12/22 12:09:30;;;;;;;12.87;12.07;;;11.70;99.90;;;;;;4930023;29;20212;-80
2022/12/22 12:12:06;;;;;;;13.80;12.80;;;11.80;99.90;;;;;;4920060;29;20265;-79
2022/12/22 12:14:38;;;;;;;13.77;12.67;;;11.90;99.90;;;;;;4918471;29;20347;-79
2022/12/22 12:17:19;;;;;;;13.30;12.30;;;11.90;99.90;;;;;;4922765;29;20221;-79
2022/12/22 12:20:00;;;;;;;13.67;12.60;;;11.90;99.90;;;;;;4928637;29;20630;-80
2022/12/22 12:22:39;;;;;;;13.90;12.80;;;11.80;99.90;;;;;;4923302;29;20289;-80
2022/12/22 12:25:21;;;;;;;13.57;12.57;;;11.70;99.90;;;;;;4927770;29;20203;-80
2022/12/22 12:28:01;;;;;;;12.87;11.97;;;11.70;99.90;;;;;;4929254;29;20212;-79
2022/12/22 12:30:34;;;;;;;12.53;11.53;;;11.70;99.90;;;;;;4926128;29;20267;-80
2022/12/22 12:33:05;;;;;;;12.27;11.43;;;11.70;99.90;;;;;;4929788;29;20277;-80
2022/12/22 12:35:42;;;;;;;12.90;11.80;;;11.60;99.90;;;;;;4928441;29;20207;-80
2022/12/22 12:38:17;;;;;;;12.73;11.70;;;11.50;99.90;;;;;;4928942;29;20209;-83
2022/12/22 12:40:51;;;;;;;12.13;11.33;;;11.60;99.90;;;;;;4928769;29;20635;-79
2022/12/22 12:43:19;;;;;;;13.47;12.40;;;11.70;99.90;;;;;;4924637;29;20665;-79
2022/12/22 12:45:48;;;;;;;13.43;12.50;;;11.80;99.90;;;;;;4931502;29;20649;-80
2022/12/22 12:48:38;;;;;;;13.83;12.50;;;11.80;99.90;;;;;;4932398;29;20218;-78
2022/12/22 12:51:47;;;;;;;13.70;12.60;;;11.80;99.90;;;;;;4930979;29;20768;-81
2022/12/22 12:54:36;;;;;;;13.20;11.93;;;11.70;99.90;;;;;;4929853;29;20284;-80
2022/12/22 12:57:26;;;;;;;13.43;12.33;;;11.60;99.90;;;;;;4928100;29;20268;-80
2022/12/22 12:59:54;;;;;;;14.13;12.80;;;11.60;99.90;;;;;;4924346;29;20210;-80
2022/12/22 13:02:55;;;;;;;14.20;12.90;;;11.40;99.90;;;;;;4933701;29;20264;-80
2022/12/22 13:05:32;;;;;;;13.53;12.40;;;11.40;99.90;;;;;;4918971;29;20220;-79
2022/12/22 13:08:18;;;;;;;14.03;12.93;;;11.40;99.90;;;;;;4929333;29;20210;-80
2022/12/22 13:11:23;;;;;;;13.50;12.50;;;11.40;99.90;;;;;;4924161;29;20202;-80
2022/12/22 13:13:52;;;;;;;13.53;12.33;;;11.40;99.90;;;;;;4931040;29;20212;-80
2022/12/22 13:16:25;;;;;;;12.80;11.77;;;11.40;99.90;;;;;;4927589;29;20204;-80
2022/12/22 13:18:57;;;;;;;13.63;12.53;;;11.30;99.90;;;;;;4932948;29;20217;-79
2022/12/22 13:21:28;;;;;;;15.17;12.70;;;11.30;99.90;;;;;;4928360;29;20235;-78
2022/12/22 13:24:03;;;;;;;13.93;12.60;;;11.30;99.90;;;;;;4930275;29;20262;-78
2022/12/22 13:26:34;;;;;;;12.77;11.73;;;11.40;99.90;;;;;;4921509;29;20205;-79
2022/12/22 13:29:07;;;;;;;12.63;11.47;;;11.40;99.90;;;;;;4929014;29;20217;-79
2022/12/22 13:31:40;;;;;;;13.50;12.17;;;11.50;99.90;;;;;;4925511;29;20221;-77
2022/12/22 13:34:19;;;;;;;12.97;11.70;;;11.60;99.90;;;;;;4928095;29;20284;-78
2022/12/22 13:36:48;;;;;;;12.40;11.40;;;11.60;99.90;;;;;;4930753;29;20240;-79
2022/12/22 13:39:16;;;;;;;12.70;11.70;;;11.60;99.90;;;;;;4929577;29;20221;-79
2022/12/22 13:41:45;;;;;;;13.07;11.73;;;11.60;99.90;;;;;;4928480;29;20632;-79
2022/12/22 13:44:16;;;;;;;12.67;11.77;;;11.60;99.90;;;;;;4929211;29;20220;-79
2022/12/22 13:46:43;;;;;;;14.43;12.27;;;11.60;99.90;;;;;;4931135;29;20588;-79
2022/12/22 13:49:16;;;;;;;13.27;11.90;;;11.50;99.90;;;;;;4929895;29;20239;-80
2022/12/22 13:51:43;;;;;;;13.63;12.20;;;11.50;99.90;;;;;;4929266;29;20221;-81
2022/12/22 13:54:16;;;;;;;13.43;12.10;;;11.40;99.90;;;;;;4930046;29;20271;-79
2022/12/22 13:56:47;;;;;;;12.87;11.70;;;11.40;99.90;;;;;;4932194;29;20246;-78
2022/12/22 13:59:26;;;;;;;13.30;12.10;;;11.40;99.90;;;;;;4931733;29;20224;-78
2022/12/22 14:01:58;;;;;;;13.83;12.40;;;11.40;99.90;;;;;;4932635;29;20288;-78
2022/12/22 14:04:26;;;;;;;12.87;11.77;;;11.40;99.90;;;;;;4933861;29;20305;-79
2022/12/22 14:06:54;;;;;;;12.73;11.63;;;11.40;99.90;;;;;;4933377;29;20201;-78
2022/12/22 14:09:24;;;;;;;13.43;12.00;;;11.40;99.90;;;;;;4933579;29;20219;-78
2022/12/22 14:11:56;;;;;;;14.00;12.50;;;11.30;99.90;;;;;;4928879;29;20715;-78
2022/12/22 14:14:26;;;;;;;13.10;11.87;;;11.30;99.90;;;;;;4933890;29;20201;-79
2022/12/22 14:16:55;;;;;;;13.03;11.73;;;11.20;99.90;;;;;;4930366;29;20260;-78
2022/12/22 14:19:23;;;;;;;13.57;12.33;;;11.10;99.90;;;;;;4936637;29;20227;-79
2022/12/22 14:22:00;;;;;;;12.90;11.83;;;11.00;99.90;;;;;;4929006;29;20223;-78
2022/12/22 14:24:31;;;;;;;12.60;11.50;;;11.00;99.90;;;;;;4925642;29;20250;-78
2022/12/22 14:27:00;;;;;;;13.23;11.97;;;10.90;99.90;;;;;;4932032;29;20200;-78
2022/12/22 14:29:30;;;;;;;13.77;12.57;;;10.90;99.90;;;;;;4931283;29;20200;-78
2022/12/22 14:32:01;;;;;;;12.87;11.77;;;10.90;99.90;;;;;;4929842;29;20213;-79
2022/12/22 14:34:30;;;;;;;14.30;12.50;;;10.90;99.90;;;;;;4911654;29;20197;-79
2022/12/22 14:36:57;;;;;;;13.83;12.57;;;10.80;99.90;;;;;;4927228;29;20262;-79
2022/12/22 14:39:26;;;;;;;13.93;12.70;;;10.70;99.90;;;;;;4929356;29;20244;-83
2022/12/22 14:41:55;;;;;;;13.40;12.00;;;10.70;99.90;;;;;;4930819;29;20251;-82
2022/12/22 14:44:26;;;;;;;14.80;12.70;;;10.70;99.90;;;;;;4930584;29;20264;-83
2022/12/22 14:47:07;;;;;;;14.27;12.97;;;10.60;99.90;;;;;;4932666;29;20204;-83
2022/12/22 14:49:35;;;;;;;15.20;13.70;;;10.60;99.90;;;;;;4926080;29;20705;-82
2022/12/22 14:52:06;;;;;;;14.57;13.27;;;10.50;99.90;;;;;;4934699;29;20215;-81
2022/12/22 14:54:33;;;;;;;13.33;12.27;;;10.50;99.90;;;;;;4926642;29;20203;-83
2022/12/22 14:57:04;;;;;;;13.40;12.30;;;10.40;99.90;;;;;;4934723;29;20703;-81
2022/12/22 14:59:33;;;;;;;13.20;12.10;;;10.40;99.90;;;;;;4924549;29;20557;-83
2022/12/22 15:02:01;;;;;;;13.27;12.13;;;10.40;99.90;;;;;;4934243;29;20258;-79
2022/12/22 15:04:29;;;;;;;13.63;12.57;;;10.40;99.90;;;;;;4917380;29;20204;-83
2022/12/22 15:07:07;;;;;;;14.80;12.63;;;10.40;99.90;;;;;;4920120;29;20203;-84
2022/12/22 15:09:34;;;;;;;14.23;13.00;;;10.30;99.90;;;;;;4912406;29;20264;-82
2022/12/22 15:12:07;;;;;;;14.47;13.17;;;10.40;99.90;;;;;;4922043;29;20647;-84
2022/12/22 15:14:37;;;;;;;14.17;12.90;;;10.30;99.90;;;;;;4914895;29;20235;-83
2022/12/22 15:17:06;;;;;;;15.93;13.53;;;10.30;99.90;;;;;;4926765;29;20258;-84
2022/12/22 15:19:35;;;;;;;14.53;13.07;;;10.20;99.90;;;;;;4930278;29;20608;-84
2022/12/22 15:22:02;;;;;;;15.00;13.70;;;10.20;99.90;;;;;;4925975;29;20286;-82
2022/12/22 15:24:29;;;;;;;14.00;12.80;;;10.20;99.90;;;;;;4927969;29;20232;-79
2022/12/22 15:26:56;;;;;;;14.73;13.40;;;10.10;99.90;;;;;;4919042;29;20776;-79
2022/12/22 15:29:23;;;;;;;14.77;13.50;;;10.00;99.90;;;;;;4914401;29;20587;-79
2022/12/22 15:31:51;;;;;;;15.30;13.87;;;10.00;99.90;;;;;;4931257;29;20219;-80
2022/12/22 15:34:23;;;;;;;14.60;13.40;;;9.90;99.90;;;;;;4934309;29;20211;-79
2022/12/22 15:36:50;;;;;;;14.83;13.50;;;9.90;99.90;;;;;;4926719;29;20234;-79
2022/12/22 15:39:22;;;;;;;15.00;13.40;;;9.90;99.90;;;;;;4925203;29;20285;-79
2022/12/22 15:41:49;;;;;;;16.13;13.73;;;9.90;99.90;;;;;;4917069;29;20225;-78
2022/12/22 15:44:16;;;;;;;15.57;13.93;;;10.00;99.90;;;;;;4916794;29;20259;-78
2022/12/22 15:46:44;;;;;;;15.60;13.00;;;10.10;99.90;;;;;;4916152;29;20208;-79
2022/12/22 15:49:18;;;;;;;14.33;13.30;;;10.00;99.90;;;;;;4926212;29;20203;-79
2022/12/22 15:51:48;;;;;;;14.50;13.30;;;10.00;99.90;;;;;;4928824;29;20224;-81
2022/12/22 15:54:16;;;;;;;14.77;13.33;;;10.00;99.90;;;;;;4931976;29;20227;-82
2022/12/22 15:56:44;;;;;;;15.23;13.83;;;10.00;99.90;;;;;;4926751;29;20231;-83
2022/12/22 15:59:17;;;;;;;15.30;13.83;;;9.90;99.90;;;;;;4934395;29;20692;-83
2022/12/22 16:01:44;;;;;;;14.90;13.60;;;9.90;99.90;;;;;;4925366;29;20240;-82
2022/12/22 16:04:11;;;;;;;14.47;13.00;;;9.90;99.90;;;;;;4927299;29;20211;-83
2022/12/22 16:06:39;;;;;;;13.87;12.43;;;9.90;99.90;;;;;;4931360;29;20199;-83
2022/12/22 16:09:12;;;;;;;14.43;13.00;;;9.80;99.90;;;;;;4925592;29;20200;-83
2022/12/22 16:11:39;;;;;;;13.47;12.40;;;9.80;99.90;;;;;;4928487;29;20223;-84
2022/12/22 16:14:06;;;;;;;13.47;12.40;;;9.70;99.90;;;;;;4927136;29;20263;-82
2022/12/22 16:16:33;;;;;;;13.60;12.40;;;9.70;99.90;;;;;;4936631;29;20212;-82
2022/12/22 16:19:00;;;;;;;13.50;12.30;;;9.60;99.90;;;;;;4928902;29;20208;-80
2022/12/22 16:21:32;;;;;;;13.50;12.60;;;9.60;99.90;;;;;;4931708;29;20244;-81
2022/12/22 16:24:02;;;;;;;14.03;12.73;;;9.60;99.90;;;;;;4930969;29;20264;-82
2022/12/22 16:26:29;;;;;;;14.60;13.17;;;9.60;99.90;;;;;;4920386;29;20206;-82